createdAt,value
2024-02-24T00:01:53.161Z,56699.13
2024-02-24T00:04:23.724Z,56703.13
2024-02-24T00:06:53.724Z,56697.09
2024-02-24T00:09:24.208Z,56701.13
2024-02-24T00:11:54.116Z,56703.13
2024-02-24T00:14:24.470Z,56701.13
2024-02-24T00:16:54.510Z,56699.13
2024-02-24T00:19:24.989Z,56703.13
2024-02-24T00:21:55.059Z,56697.09
2024-02-24T00:24:25.372Z,56699.13
2024-02-24T00:26:55.432Z,56703.13
2024-02-24T00:29:25.898Z,56699.13
2024-02-24T00:31:55.901Z,56701.13
2024-02-24T00:34:26.542Z,56701.13
2024-02-24T00:36:56.505Z,56699.13
2024-02-24T00:39:26.715Z,56701.13
2024-02-24T00:41:56.709Z,56699.13
2024-02-24T00:44:27.006Z,56701.13
2024-02-24T00:46:57.050Z,56701.13
2024-02-24T00:49:27.719Z,56699.13
2024-02-24T00:51:57.868Z,56697.09
2024-02-24T00:54:28.230Z,56703.13
2024-02-24T00:56:58.048Z,56697.09
2024-02-24T00:59:29.127Z,56699.13
2024-02-24T01:01:59.302Z,56699.13
2024-02-24T01:04:31.149Z,56699.13
2024-02-24T01:07:03.277Z,56697.09
2024-02-24T01:09:34.131Z,56699.13
2024-02-24T01:12:04.886Z,56699.13
2024-02-24T01:14:35.372Z,56697.09
2024-02-24T01:17:05.514Z,56699.13
2024-02-24T01:19:35.730Z,56697.09
2024-02-24T01:22:06.027Z,56697.09
2024-02-24T01:24:36.362Z,56701.13
2024-02-24T01:27:06.547Z,56697.09
2024-02-24T01:29:39.865Z,56697.09
2024-02-24T01:32:09.866Z,56699.13
2024-02-24T01:34:40.597Z,56695.09
2024-02-24T01:37:10.626Z,56697.09
2024-02-24T01:39:40.943Z,56697.09
2024-02-24T01:42:11.691Z,56697.09
2024-02-24T01:44:42.108Z,56697.09
2024-02-24T01:47:12.190Z,56699.13
2024-02-24T01:49:43.276Z,56699.13
2024-02-24T01:52:13.406Z,56697.09
2024-02-24T01:54:44.252Z,56701.13
2024-02-24T01:57:15.551Z,56699.13
2024-02-24T01:59:46.715Z,56697.09
2024-02-24T02:02:16.978Z,56693.09
2024-02-24T02:04:51.096Z,56695.09
2024-02-24T02:07:24.856Z,56697.09
2024-02-24T02:09:56.966Z,56697.09
2024-02-24T02:12:27.969Z,56695.09
2024-02-24T02:14:58.567Z,56695.09
2024-02-24T02:17:31.216Z,56697.09
2024-02-24T02:20:05.904Z,56695.09
2024-02-24T02:22:35.946Z,56697.09
2024-02-24T02:25:06.615Z,56701.13
2024-02-24T02:27:36.616Z,56697.09
2024-02-24T02:30:06.944Z,56699.13
2024-02-24T02:32:37.478Z,56697.09
2024-02-24T02:35:08.696Z,56699.13
2024-02-24T02:37:39.121Z,56697.09
2024-02-24T02:40:09.778Z,56697.09
2024-02-24T02:42:40.489Z,56695.09
2024-02-24T02:45:10.556Z,56695.09
2024-02-24T02:47:42.388Z,56697.09
2024-02-24T02:50:12.410Z,56695.09
2024-02-24T02:52:42.891Z,56697.09
2024-02-24T02:55:12.796Z,56693.09
2024-02-24T02:57:43.482Z,56697.09
2024-02-24T03:00:15.219Z,56695.09
2024-02-24T03:02:45.813Z,56695.09
2024-02-24T03:05:15.763Z,56695.09
2024-02-24T03:07:46.321Z,56695.09
2024-02-24T03:10:16.482Z,56697.09
2024-02-24T03:12:46.922Z,56697.09
2024-02-24T03:15:17.312Z,56695.09
2024-02-24T03:17:47.918Z,56695.09
2024-02-24T03:20:18.005Z,56697.09
2024-02-24T03:22:48.459Z,56697.09
2024-02-24T03:25:18.534Z,56695.09
2024-02-24T03:27:48.936Z,56697.09
2024-02-24T03:30:18.967Z,56693.09
2024-02-24T03:32:49.387Z,56695.09
2024-02-24T03:35:19.623Z,56699.13
2024-02-24T03:37:52.153Z,56697.09
2024-02-24T03:40:21.614Z,56693.09
2024-02-24T03:42:51.222Z,56693.09
2024-02-24T03:45:21.646Z,56695.09
2024-02-24T03:47:51.676Z,56693.09
2024-02-24T03:50:22.155Z,56693.09
2024-02-24T03:52:52.622Z,56693.09
2024-02-24T03:55:22.990Z,56693.09
2024-02-24T03:57:52.901Z,56691.06
2024-02-24T04:00:23.023Z,56695.09
2024-02-24T04:02:53.321Z,56695.09
2024-02-24T04:05:23.516Z,56697.09
2024-02-24T04:07:53.921Z,56693.09
2024-02-24T04:10:23.856Z,56695.09
2024-02-24T04:12:54.199Z,56695.09
2024-02-24T04:15:24.999Z,56693.09
2024-02-24T04:17:55.604Z,56695.09
2024-02-24T04:20:25.631Z,56693.09
2024-02-24T04:22:55.895Z,56693.09
2024-02-24T04:25:25.680Z,56693.09
2024-02-24T04:27:55.575Z,56695.09
2024-02-24T04:30:25.957Z,56695.09
2024-02-24T04:32:55.830Z,56691.06
2024-02-24T04:35:26.303Z,56693.09
2024-02-24T04:37:56.231Z,56695.09
2024-02-24T04:40:26.606Z,56693.09
2024-02-24T04:42:56.506Z,56693.09
2024-02-24T04:45:26.835Z,56695.09
2024-02-24T04:47:56.625Z,56691.06
2024-02-24T04:50:27.113Z,56693.09
2024-02-24T04:52:57.075Z,56695.09
2024-02-24T04:55:27.123Z,56693.09
2024-02-24T04:57:57.342Z,56693.09
2024-02-24T05:00:27.614Z,56693.09
2024-02-24T05:02:57.887Z,56693.09
2024-02-24T05:05:27.905Z,56691.06
2024-02-24T05:07:58.882Z,56697.09
2024-02-24T05:10:29.742Z,56693.09
2024-02-24T05:13:02.107Z,56693.09
2024-02-24T05:15:33.447Z,56693.09
2024-02-24T05:18:03.880Z,56695.09
2024-02-24T05:20:34.052Z,56695.09
2024-02-24T05:23:04.430Z,56691.06
2024-02-24T05:25:36.324Z,56695.09
2024-02-24T05:28:06.337Z,56691.06
2024-02-24T05:30:36.195Z,56693.09
2024-02-24T05:33:06.649Z,56695.09
2024-02-24T05:35:37.537Z,56689.06
2024-02-24T05:38:07.657Z,56695.09
2024-02-24T05:40:38.100Z,56693.09
2024-02-24T05:43:07.843Z,56695.09
2024-02-24T05:45:38.316Z,56693.09
2024-02-24T05:48:08.645Z,56695.09
2024-02-24T05:50:39.158Z,56693.09
2024-02-24T05:53:11.827Z,56691.06
2024-02-24T05:55:42.850Z,56691.06
2024-02-24T05:58:12.925Z,56691.06
2024-02-24T06:00:43.304Z,56689.06
2024-02-24T06:03:14.373Z,56695.09
2024-02-24T06:05:45.164Z,56691.06
2024-02-24T06:08:15.180Z,56693.09
2024-02-24T06:10:45.007Z,56693.09
2024-02-24T06:13:15.711Z,56691.06
2024-02-24T06:15:45.707Z,56689.06
2024-02-24T06:18:18.019Z,56691.06
2024-02-24T06:20:48.104Z,56689.06
2024-02-24T06:23:18.455Z,56695.09
2024-02-24T06:25:48.435Z,56691.06
2024-02-24T06:28:18.699Z,56693.09
2024-02-24T06:30:48.778Z,56691.06
2024-02-24T06:33:19.104Z,56693.09
2024-02-24T06:35:49.344Z,56691.06
2024-02-24T06:38:20.082Z,56689.06
2024-02-24T06:40:50.126Z,56689.06
2024-02-24T06:43:20.701Z,56691.06
2024-02-24T06:45:51.015Z,56687.06
2024-02-24T06:48:21.396Z,56689.06
2024-02-24T06:50:51.446Z,56689.06
2024-02-24T06:53:21.723Z,56691.06
2024-02-24T06:55:51.977Z,56691.06
2024-02-24T06:58:22.252Z,56693.09
2024-02-24T07:00:52.139Z,56693.09
2024-02-24T07:03:22.462Z,56689.06
2024-02-24T07:05:52.704Z,56691.06
2024-02-24T07:08:23.046Z,56691.06
2024-02-24T07:10:53.155Z,56689.06
2024-02-24T07:13:24.722Z,56691.06
2024-02-24T07:15:54.689Z,56689.06
2024-02-24T07:18:25.032Z,56693.09
2024-02-24T07:20:55.165Z,56689.06
2024-02-24T07:23:26.131Z,56695.09
2024-02-24T07:25:56.529Z,56689.06
2024-02-24T07:28:26.793Z,56693.09
2024-02-24T07:30:57.889Z,56689.06
2024-02-24T07:33:28.321Z,56691.06
2024-02-24T07:35:58.504Z,56691.06
2024-02-24T07:38:28.363Z,56691.06
2024-02-24T07:41:18.836Z,56689.06
2024-02-24T07:43:48.722Z,56689.06
2024-02-24T07:46:32.196Z,56689.06
2024-02-24T07:49:03.440Z,56689.06
2024-02-24T07:51:34.005Z,56689.06
2024-02-24T07:54:04.214Z,56689.06
2024-02-24T07:56:34.785Z,56689.06
2024-02-24T07:59:04.757Z,56693.09
2024-02-24T08:01:35.127Z,56689.06
2024-02-24T08:04:05.636Z,56691.06
2024-02-24T08:06:36.269Z,56691.06
2024-02-24T08:09:08.775Z,56687.06
2024-02-24T08:11:45.145Z,56691.06
2024-02-24T08:14:15.257Z,56691.06
2024-02-24T08:16:45.561Z,56689.06
2024-02-24T08:19:15.610Z,56693.09
2024-02-24T08:21:45.932Z,56691.06
2024-02-24T08:24:18.686Z,56691.06
2024-02-24T08:26:50.634Z,56693.09
2024-02-24T08:29:20.715Z,56689.06
2024-02-24T08:31:51.040Z,56691.06
2024-02-24T08:34:21.326Z,56687.06
2024-02-24T08:36:51.799Z,56687.06
2024-02-24T08:39:21.816Z,56691.06
2024-02-24T08:41:52.181Z,56687.06
2024-02-24T08:44:22.237Z,56689.06
2024-02-24T08:46:52.623Z,56689.06
2024-02-24T08:49:22.662Z,56691.06
2024-02-24T08:51:53.328Z,56687.06
2024-02-24T08:54:23.355Z,56689.06
2024-02-24T08:56:54.439Z,56687.06
2024-02-24T08:59:25.276Z,56691.06
2024-02-24T09:01:56.406Z,56689.06
2024-02-24T09:04:26.421Z,56687.06
2024-02-24T09:06:56.781Z,56691.06
2024-02-24T09:09:26.969Z,56691.06
2024-02-24T09:11:57.353Z,56691.06
2024-02-24T09:14:27.424Z,56689.06
2024-02-24T09:16:58.562Z,56689.06
2024-02-24T09:19:28.675Z,56689.06
2024-02-24T09:21:59.017Z,56689.06
2024-02-24T09:24:29.031Z,56691.06
2024-02-24T09:26:59.427Z,56689.06
2024-02-24T09:29:29.493Z,56691.06
2024-02-24T09:32:00.693Z,56689.06
2024-02-24T09:34:30.823Z,56689.06
2024-02-24T09:37:05.525Z,56689.06
2024-02-24T09:39:35.481Z,56687.06
2024-02-24T09:42:07.893Z,56687.06
2024-02-24T09:44:39.064Z,56691.06
2024-02-24T09:47:11.025Z,56689.06
2024-02-24T09:49:41.600Z,56687.06
2024-02-24T09:52:12.274Z,56691.06
2024-02-24T09:54:42.253Z,56687.06
2024-02-24T09:57:17.804Z,56691.06
2024-02-24T09:59:48.733Z,56687.06
2024-02-24T10:02:19.570Z,56689.06
2024-02-24T10:04:52.928Z,56691.06
2024-02-24T10:07:24.451Z,56689.06
2024-02-24T10:09:55.676Z,56691.06
2024-02-24T10:12:26.551Z,56693.09
2024-02-24T10:14:56.747Z,56697.09
2024-02-24T10:17:31.554Z,56697.09
2024-02-24T10:20:01.535Z,56693.09
2024-02-24T10:22:31.796Z,56699.13
2024-02-24T10:25:01.882Z,56697.09
2024-02-24T10:27:32.495Z,56695.09
2024-02-24T10:30:07.204Z,56699.13
2024-02-24T10:32:38.515Z,56699.13
2024-02-24T10:35:09.364Z,56703.13
2024-02-24T10:37:56.901Z,56699.13
2024-02-24T10:40:29.844Z,56703.13
2024-02-24T10:43:00.996Z,56703.13
2024-02-24T10:45:31.544Z,56705.16
2024-02-24T10:48:02.026Z,56705.16
2024-02-24T10:50:32.193Z,56705.16
2024-02-24T10:53:04.162Z,56707.16
2024-02-24T10:55:35.471Z,56709.16
2024-02-24T10:58:05.738Z,56709.16
2024-02-24T11:00:39.201Z,56709.16
2024-02-24T11:03:15.182Z,56707.16
2024-02-24T11:05:53.124Z,56707.16
2024-02-24T11:08:38.610Z,56711.19
2024-02-24T11:11:13.873Z,56711.19
2024-02-24T11:14:00.300Z,56713.19
2024-02-24T11:16:41.594Z,56707.16
2024-02-24T11:19:14.844Z,56709.16
2024-02-24T11:22:23.926Z,56707.16
2024-02-24T11:25:04.747Z,56709.16
2024-02-24T11:27:41.719Z,56709.16
2024-02-24T11:30:47.808Z,56707.16
2024-02-24T11:33:29.514Z,56707.16
2024-02-24T11:36:17.557Z,56705.16
2024-02-24T11:38:48.045Z,56709.16
2024-02-24T11:41:19.503Z,56707.16
2024-02-24T11:43:50.019Z,56707.16
2024-02-24T11:46:20.361Z,56711.19
2024-02-24T11:48:55.041Z,56707.16
2024-02-24T11:51:25.952Z,56713.19
2024-02-24T11:53:56.150Z,56713.19
2024-02-24T11:56:27.766Z,56715.19
2024-02-24T11:58:57.985Z,56713.19
2024-02-24T12:01:29.487Z,56717.22
2024-02-24T12:04:03.998Z,56713.19
2024-02-24T12:06:35.004Z,56713.19
2024-02-24T12:09:05.272Z,56717.22
2024-02-24T12:11:35.696Z,56715.19
2024-02-24T12:14:05.921Z,56715.19
2024-02-24T12:16:36.384Z,56715.19
2024-02-24T12:19:11.489Z,56719.22
2024-02-24T12:21:43.487Z,56715.19
2024-02-24T12:24:13.490Z,56717.22
2024-02-24T12:26:43.853Z,56717.22
2024-02-24T12:29:14.910Z,56715.19
2024-02-24T12:31:45.184Z,56717.22
2024-02-24T12:34:15.100Z,56713.19
2024-02-24T12:36:45.391Z,56719.22
2024-02-24T12:39:15.248Z,56717.22
2024-02-24T12:41:45.574Z,56715.19
2024-02-24T12:44:15.702Z,56715.19
2024-02-24T12:46:46.598Z,56721.22
2024-02-24T12:49:16.716Z,56717.22
2024-02-24T12:51:54.218Z,56719.22
2024-02-24T12:54:24.293Z,56719.22
2024-02-24T12:56:54.599Z,56721.22
2024-02-24T12:59:25.780Z,56721.22
2024-02-24T13:01:55.663Z,56719.22
2024-02-24T13:04:25.652Z,56719.22
2024-02-24T13:06:58.974Z,56723.25
2024-02-24T13:09:29.533Z,56721.22
2024-02-24T13:11:59.624Z,56723.25
2024-02-24T13:14:30.330Z,56723.25
2024-02-24T13:17:00.335Z,56721.22
2024-02-24T13:19:30.818Z,56723.25
2024-02-24T13:22:00.845Z,56719.22
2024-02-24T13:24:31.367Z,56719.22
2024-02-24T13:27:01.338Z,56721.22
2024-02-24T13:29:32.176Z,56723.25
2024-02-24T13:32:02.121Z,56719.22
2024-02-24T13:34:32.733Z,56719.22
2024-02-24T13:37:03.367Z,56717.22
2024-02-24T13:39:34.755Z,56721.22
2024-02-24T13:42:04.838Z,56719.22
2024-02-24T13:44:35.268Z,56715.19
2024-02-24T13:47:05.332Z,56717.22
2024-02-24T13:49:36.118Z,56719.22
2024-02-24T13:52:07.432Z,56719.22
2024-02-24T13:54:37.833Z,56719.22
2024-02-24T13:57:07.993Z,56721.22
2024-02-24T13:59:39.320Z,56719.22
2024-02-24T14:02:09.227Z,56717.22
2024-02-24T14:04:40.631Z,56721.22
2024-02-24T14:07:10.737Z,56721.22
2024-02-24T14:09:42.226Z,56721.22
2024-02-24T14:12:13.099Z,56721.22
2024-02-24T14:14:44.312Z,56723.25
2024-02-24T14:17:21.269Z,56723.25
2024-02-24T14:19:51.788Z,56721.22
2024-02-24T14:22:21.724Z,56721.22
2024-02-24T14:24:52.088Z,56719.22
2024-02-24T14:27:21.964Z,56721.22
2024-02-24T14:29:52.469Z,56719.22
2024-02-24T14:32:22.409Z,56719.22
2024-02-24T14:34:53.738Z,56721.22
2024-02-24T14:37:24.372Z,56719.22
2024-02-24T14:39:55.221Z,56721.22
2024-02-24T14:42:26.688Z,56723.25
2024-02-24T14:44:57.425Z,56719.22
2024-02-24T14:47:28.677Z,56721.22
2024-02-24T14:49:59.281Z,56719.22
2024-02-24T14:52:29.224Z,56719.22
2024-02-24T14:54:59.577Z,56719.22
2024-02-24T14:57:29.399Z,56723.25
2024-02-24T14:59:59.871Z,56723.25
2024-02-24T15:02:40.536Z,56721.22
2024-02-24T15:05:19.374Z,56723.25
2024-02-24T15:07:49.674Z,56719.22
2024-02-24T15:10:20.391Z,56719.22
2024-02-24T15:12:51.245Z,56719.22
2024-02-24T15:15:21.961Z,56721.22
2024-02-24T15:17:54.318Z,56721.22
2024-02-24T15:20:24.848Z,56723.25
2024-02-24T15:22:54.860Z,56723.25
2024-02-24T15:25:25.327Z,56723.25
2024-02-24T15:27:55.273Z,56721.22
2024-02-24T15:30:25.690Z,56721.22
2024-02-24T15:32:59.877Z,56723.25
2024-02-24T15:35:30.391Z,56721.22
2024-02-24T15:38:01.384Z,56723.25
2024-02-24T15:40:34.064Z,56723.25
2024-02-24T15:43:04.844Z,56723.25
2024-02-24T15:45:34.643Z,56723.25
2024-02-24T15:48:05.122Z,56723.25
2024-02-24T15:50:35.220Z,56723.25
2024-02-24T15:53:06.113Z,56721.22
2024-02-24T15:55:36.214Z,56721.22
2024-02-24T15:58:06.564Z,56717.22
2024-02-24T16:00:36.652Z,56723.25
2024-02-24T16:03:07.876Z,56723.25
2024-02-24T16:05:38.039Z,56719.22
2024-02-24T16:08:10.289Z,56725.25
2024-02-24T16:10:41.393Z,56727.25
2024-02-24T16:13:15.618Z,56725.25
2024-02-24T16:15:46.853Z,56721.22
2024-02-24T16:18:17.661Z,56725.25
2024-02-24T16:20:48.093Z,56721.22
2024-02-24T16:23:18.476Z,56721.22
2024-02-24T16:25:48.904Z,56723.25
2024-02-24T16:28:18.977Z,56721.22
2024-02-24T16:30:49.529Z,56719.22
2024-02-24T16:33:19.522Z,56719.22
2024-02-24T16:35:53.759Z,56719.22
2024-02-24T16:38:23.699Z,56717.22
2024-02-24T16:40:54.116Z,56721.22
2024-02-24T16:43:23.807Z,56721.22
2024-02-24T16:45:54.159Z,56721.22
2024-02-24T16:48:24.053Z,56721.22
2024-02-24T16:50:54.599Z,56721.22
2024-02-24T16:53:24.492Z,56723.25
2024-02-24T16:55:55.114Z,56725.25
2024-02-24T16:58:25.305Z,56723.25
2024-02-24T17:00:55.680Z,56719.22
2024-02-24T17:03:25.655Z,56723.25
2024-02-24T17:05:56.327Z,56721.22
2024-02-24T17:08:26.620Z,56719.22
2024-02-24T17:10:57.094Z,56719.22
2024-02-24T17:13:29.738Z,56725.25
2024-02-24T17:16:00.279Z,56729.28
2024-02-24T17:18:36.037Z,56727.25
2024-02-24T17:21:08.600Z,56725.25
2024-02-24T17:23:43.608Z,56725.25
2024-02-24T17:26:18.531Z,56725.25
2024-02-24T17:28:50.060Z,56727.25
2024-02-24T17:31:20.770Z,56725.25
2024-02-24T17:33:50.867Z,56723.25
2024-02-24T17:36:22.203Z,56725.25
2024-02-24T17:38:52.807Z,56721.22
2024-02-24T17:41:23.246Z,56719.22
2024-02-24T17:43:53.128Z,56715.19
2024-02-24T17:46:23.515Z,56717.22
2024-02-24T17:48:53.908Z,56717.22
2024-02-24T17:51:23.985Z,56717.22
2024-02-24T17:53:54.331Z,56719.22
2024-02-24T17:56:24.404Z,56721.22
2024-02-24T17:58:54.705Z,56719.22
2024-02-24T18:01:24.740Z,56719.22
2024-02-24T18:03:55.084Z,56715.19
2024-02-24T18:06:25.147Z,56719.22
2024-02-24T18:08:55.543Z,56717.22
2024-02-24T18:11:27.429Z,56719.22
2024-02-24T18:13:58.291Z,56721.22
2024-02-24T18:16:28.319Z,56721.22
2024-02-24T18:18:58.893Z,56719.22
2024-02-24T18:21:29.388Z,56717.22
2024-02-24T18:23:59.709Z,56719.22
2024-02-24T18:26:29.744Z,56719.22
2024-02-24T18:29:03.143Z,56719.22
2024-02-24T18:31:33.138Z,56717.22
2024-02-24T18:34:03.787Z,56717.22
2024-02-24T18:36:34.540Z,56719.22
2024-02-24T18:39:05.171Z,56717.22
2024-02-24T18:41:35.554Z,56721.22
2024-02-24T18:44:06.452Z,56717.22
2024-02-24T18:46:36.492Z,56713.19
2024-02-24T18:49:06.236Z,56719.22
2024-02-24T18:51:36.803Z,56715.19
2024-02-24T18:54:06.938Z,56715.19
2024-02-24T18:56:37.555Z,56717.22
2024-02-24T18:59:07.810Z,56715.19
2024-02-24T19:01:38.270Z,56715.19
2024-02-24T22:25:21.362Z,56697.09
2024-02-24T22:27:55.799Z,56697.09
2024-02-24T22:30:26.759Z,56699.13
2024-02-24T22:32:58.438Z,56701.13
2024-02-24T22:35:28.524Z,56697.09
2024-02-24T22:37:58.991Z,56699.13
2024-02-24T22:40:29.545Z,56697.09
2024-02-24T22:43:00.148Z,56695.09
2024-02-24T22:45:30.182Z,56697.09
2024-02-24T22:48:00.035Z,56697.09
2024-02-24T22:50:31.695Z,56697.09
2024-02-24T22:53:01.671Z,56699.13
2024-02-24T22:55:35.057Z,56699.13
2024-02-24T22:58:05.103Z,56697.09
2024-02-24T23:00:35.634Z,56697.09
2024-02-24T23:03:07.312Z,56699.13
2024-02-24T23:05:38.134Z,56697.09
2024-02-24T23:08:09.444Z,56699.13
2024-02-24T23:10:39.835Z,56697.09
2024-02-24T23:13:09.765Z,56697.09
2024-02-24T23:15:41.581Z,56695.09
2024-02-24T23:18:11.712Z,56697.09
2024-02-24T23:20:42.227Z,56697.09
2024-02-24T23:23:12.165Z,56697.09
2024-02-24T23:25:42.105Z,56695.09
2024-02-24T23:28:15.249Z,56695.09
2024-02-24T23:30:45.299Z,56695.09
2024-02-24T23:33:15.460Z,56697.09
2024-02-24T23:35:46.325Z,56697.09
2024-02-24T23:38:16.307Z,56695.09
2024-02-24T23:40:46.205Z,56697.09
2024-02-24T23:43:16.598Z,56693.09
2024-02-24T23:45:47.590Z,56695.09
2024-02-24T23:48:18.024Z,56697.09
2024-02-24T23:50:48.054Z,56695.09
2024-02-24T23:53:19.176Z,56697.09
2024-02-24T23:55:49.159Z,56695.09
2024-02-24T23:58:19.419Z,56697.09
